Aviation Digital Data Service (ADDS)

Output produced by METARs form (1234 UTC 25 June 2019)
found at http://www.aviationweather.gov/metar/data/
 
Forecast for: PASI (SITKA , AK, US)
Text: PASI 251120Z 2512/2612 32004KT P6SM SCT015 SCT100
Forecast period: 1200 UTC 25 June 2019 to 0600 UTC 26 June 2019
Forecast type: FROM: standard forecast or significant change
Winds: from the NW (320 degrees) at 5 MPH (4 knots; 2.1 m/s)
Visibility: 6 or more miles 10+ km)
Ceiling: at least 12,000 feet AGL
Clouds: scattered clouds at 1500 feet AGL
scattered clouds at 10000 feet AGL
Weather: no significant weather forecast for this period
Text: FM260600 33005KT P6SM BKN015
Forecast period: 0600 to 1200 UTC 26 June 2019
Forecast type: FROM: standard forecast or significant change
Winds: from the NNW (330 degrees) at 6 MPH (5 knots; 2.6 m/s)
Visibility: 6 or more miles 10+ km)
Ceiling: 1500 feet AGL
Clouds: broken clouds at 1500 feet AGL
Weather: no significant weather forecast for this period